createdAt,value
2022-10-11T01:06:15.981Z,8.70
2022-10-11T01:08:44.564Z,8.70
2022-10-11T01:11:17.961Z,8.60
2022-10-11T01:13:57.661Z,8.60
2022-10-11T01:17:17.008Z,8.60
2022-10-11T01:20:37.876Z,8.60
2022-10-11T01:23:19.629Z,8.60
2022-10-11T01:26:18.176Z,8.60
2022-10-11T01:29:39.062Z,8.56
2022-10-11T01:32:09.836Z,8.50
2022-10-11T01:35:11.234Z,8.50
2022-10-11T01:37:48.465Z,8.50
2022-10-11T01:40:26.980Z,8.50
2022-10-11T01:42:57.193Z,8.50
2022-10-11T01:45:25.618Z,8.50
2022-10-11T01:48:07.107Z,8.50
2022-10-11T01:50:42.791Z,8.50
2022-10-11T01:53:21.798Z,8.52
2022-10-11T01:56:21.589Z,8.50
2022-10-11T01:59:11.144Z,8.50
2022-10-11T02:02:01.685Z,8.60
2022-10-11T02:04:36.625Z,8.60
2022-10-11T02:07:31.323Z,8.60
2022-10-11T02:10:26.276Z,8.60
2022-10-11T02:13:07.054Z,8.60
2022-10-11T02:15:39.118Z,8.60
2022-10-11T02:18:14.672Z,8.60
2022-10-11T02:20:45.490Z,8.68
2022-10-11T02:23:27.476Z,8.70
2022-10-11T02:25:57.379Z,8.70
2022-10-11T02:28:31.574Z,8.70
2022-10-11T02:31:01.785Z,8.70
2022-10-11T02:33:56.082Z,8.72
2022-10-11T02:36:45.872Z,8.78
2022-10-11T02:39:52.210Z,8.80
2022-10-11T02:42:33.975Z,8.76
2022-10-11T02:45:10.927Z,8.80
2022-10-11T02:47:40.805Z,8.80
2022-10-11T02:50:11.574Z,8.80
2022-10-11T02:52:39.597Z,8.80
2022-10-11T02:55:08.970Z,8.80
2022-10-11T02:57:36.853Z,8.80
2022-10-11T03:00:05.940Z,8.80
2022-10-11T03:02:33.696Z,8.80
2022-10-11T03:05:01.655Z,8.80
2022-10-11T03:07:29.674Z,8.80
2022-10-11T03:09:57.789Z,8.80
2022-10-11T03:12:25.591Z,8.80
2022-10-11T03:14:53.488Z,8.80
2022-10-11T03:17:36.159Z,8.80
2022-10-11T03:20:08.328Z,8.80
2022-10-11T03:22:36.691Z,8.80
2022-10-11T03:25:05.135Z,8.80
2022-10-11T03:27:33.828Z,8.86
2022-10-11T03:30:01.929Z,8.84
2022-10-11T03:32:29.956Z,8.90
2022-10-11T03:34:58.320Z,8.90
2022-10-11T03:37:26.842Z,8.90
2022-10-11T03:39:54.601Z,8.90
2022-10-11T03:42:22.411Z,8.90
2022-10-11T03:44:51.939Z,8.90
2022-10-11T03:47:20.063Z,8.90
2022-10-11T03:49:47.954Z,8.96
2022-10-11T03:52:15.820Z,8.96
2022-10-11T03:54:43.709Z,9.00
2022-10-11T03:57:11.524Z,9.00
2022-10-11T03:59:39.261Z,9.00
2022-10-11T04:02:07.225Z,9.00
2022-10-11T04:04:35.211Z,9.00
2022-10-11T04:07:03.268Z,9.02
2022-10-11T04:09:31.044Z,9.10
2022-10-11T04:11:58.941Z,9.10
2022-10-11T04:14:27.248Z,9.10
2022-10-11T04:16:58.414Z,9.10
2022-10-11T04:19:28.473Z,9.10
2022-10-11T04:21:56.434Z,9.10
2022-10-11T04:24:24.358Z,9.10
2022-10-11T04:26:52.211Z,9.10
2022-10-11T04:29:20.210Z,9.10
2022-10-11T04:31:47.919Z,9.10
2022-10-11T04:34:15.775Z,9.10
2022-10-11T04:36:47.633Z,9.16
2022-10-11T04:39:17.893Z,9.20
2022-10-11T04:41:45.719Z,9.20
2022-10-11T04:44:13.505Z,9.20
2022-10-11T04:46:41.995Z,9.30
2022-10-11T04:49:09.811Z,9.30
2022-10-11T04:51:37.927Z,9.30
2022-10-11T04:54:05.775Z,9.38
2022-10-11T04:56:33.629Z,9.40
2022-10-11T04:59:01.401Z,9.40
2022-10-11T05:01:29.271Z,9.40
2022-10-11T05:03:57.119Z,9.40
2022-10-11T05:06:24.866Z,9.40
2022-10-11T05:08:52.678Z,9.40
2022-10-11T05:11:20.446Z,9.40
2022-10-11T05:13:48.336Z,9.40
2022-10-11T05:16:16.879Z,9.40
2022-10-11T05:18:45.010Z,9.40
2022-10-11T05:21:25.401Z,9.40
2022-10-11T05:23:55.997Z,9.40
2022-10-11T05:26:27.686Z,9.40
2022-10-11T05:28:56.017Z,9.46
2022-10-11T05:31:24.183Z,9.48
2022-10-11T05:33:52.114Z,9.46
2022-10-11T05:36:20.487Z,9.50
2022-10-11T05:38:48.407Z,9.50
2022-10-11T05:41:17.167Z,9.50
